Tucumcari ASC Data

Date Time Air Temperature Relative Humidity Dewpoint Windchill Heat Index Wind Speed Wind Dir. Rain Solar Radiation Soil Temperature
2m 2m 3m 3m 10cm
US/Mountain F % F F F MPH deg in MJ/m^2 F
max avg avg
2020-09-16 00:05:00 64.2 46.4 43.2 64.2 64.2 1.7 2.2 1.9 84.0 78.6 0.00 0.0000000 73.5
2020-09-16 00:10:00 64.5 46.0 43.2 64.5 64.5 2.1 2.4 2.0 75.9 78.5 0.00 0.0000000 73.4
2020-09-16 00:15:00 64.5 46.2 43.3 64.5 64.5 2.6 2.6 2.2 62.6 76.0 0.00 0.0000000 73.2
2020-09-16 00:20:00 64.6 46.2 43.4 64.6 64.6 2.2 2.8 2.3 42.1 57.4 0.00 0.0000000 73.1
2020-09-16 00:25:00 65.1 45.4 43.4 65.1 65.1 1.3 2.2 1.7 28.4 33.5 0.00 0.0000000 73.0
2020-09-16 00:30:00 64.8 45.7 43.4 64.8 64.8 1.5 2.4 1.9 16.0 18.6 0.00 0.0000000 72.9
2020-09-16 00:35:00 64.7 46.1 43.5 64.7 64.7 0.0 1.5 0.4 0.0 16.0 0.00 0.0000000 72.8
2020-09-16 00:40:00 64.6 46.2 43.4 64.6 64.6 0.0 0.0 0.0 40.9 0.0 0.00 0.0000000 72.7
2020-09-16 00:45:00 64.9 45.7 43.5 64.9 64.9 0.0 0.0 0.0 312.1 0.0 0.00 0.0000000 72.6
2020-09-16 00:50:00 65.3 45.3 43.6 65.3 65.3 0.0 0.0 0.0 157.2 0.0 0.00 0.0000000 72.5
2020-09-16 00:55:00 64.7 46.2 43.5 64.7 64.7 0.0 0.0 0.0 191.4 0.0 0.00 0.0000000 72.3
2020-09-16 01:00:00 64.8 46.3 43.7 64.8 64.8 3.8 3.8 0.5 184.9 184.0 0.00 0.0000000 72.2
2020-09-16 01:05:00 64.6 46.8 43.8 64.6 64.6 2.1 4.2 2.4 210.1 188.4 0.00 0.0000000 72.1
2020-09-16 01:10:00 64.3 47.2 43.8 64.3 64.3 2.1 3.5 2.6 183.5 181.9 0.00 0.0000000 72.0
2020-09-16 01:15:00 64.3 47.4 43.9 64.3 64.3 2.2 2.4 1.8 202.8 200.0 0.00 0.0000000 71.9
2020-09-16 01:20:00 64.5 47.3 44.0 64.5 64.5 1.0 2.6 1.4 212.2 186.3 0.00 0.0000000 71.8
2020-09-16 01:25:00 64.5 47.2 43.9 64.5 64.5 1.5 1.5 0.1 221.5 214.1 0.00 0.0000000 71.7
2020-09-16 01:30:00 64.1 48.0 44.0 64.1 64.1 1.9 2.4 2.2 248.6 229.1 0.00 0.0000000 71.6
2020-09-16 01:35:00 63.5 50.4 44.7 63.5 63.5 1.2 2.2 1.9 208.2 244.5 0.00 0.0000000 71.5
2020-09-16 01:40:00 62.2 51.8 44.3 62.2 62.2 0.8 1.9 1.6 96.8 158.4 0.00 0.0000000 71.4
2020-09-16 01:45:00 61.6 52.8 44.2 61.6 61.6 0.0 0.0 0.0 30.0 0.0 0.00 0.0000000 71.3
2020-09-16 01:50:00 61.8 52.5 44.2 61.8 61.8 0.0 2.6 0.9 343.3 19.9 0.00 0.0000000 71.2
2020-09-16 01:55:00 61.6 52.6 44.1 61.6 61.6 0.0 0.0 0.0 120.8 0.0 0.00 0.0000000 71.1
2020-09-16 02:00:00 61.5 52.7 44.1 61.5 61.5 0.0 0.0 0.0 317.1 0.0 0.00 0.0000000 71.0
2020-09-16 02:05:00 61.8 52.2 44.1 61.8 61.8 0.0 0.0 0.0 61.1 0.0 0.00 0.0000000 70.9
2020-09-16 02:10:00 62.1 51.3 44.0 62.1 62.1 0.0 0.0 0.0 84.4 0.0 0.00 0.0000000 70.8
2020-09-16 02:15:00 61.8 52.1 44.0 61.8 61.8 0.0 0.0 0.0 72.3 0.0 0.00 0.0000000 70.7
2020-09-16 02:20:00 61.6 52.4 44.0 61.6 61.6 0.0 0.0 0.0 89.4 0.0 0.00 0.0000000 70.6
2020-09-16 02:25:00 61.3 53.2 44.1 61.3 61.3 0.0 0.0 0.0 100.6 0.0 0.00 0.0000000 70.5
2020-09-16 02:30:00 61.3 53.4 44.2 61.3 61.3 0.0 0.0 0.0 121.6 0.0 0.00 0.0000000 70.4
2020-09-16 02:35:00 60.6 54.6 44.2 60.6 60.6 2.2 2.2 1.2 107.9 107.4 0.00 0.0000000 70.3
2020-09-16 02:40:00 60.0 55.9 44.2 60.0 60.0 2.2 2.8 2.2 84.8 96.6 0.00 0.0000000 70.2
2020-09-16 02:45:00 60.2 55.5 44.2 60.2 60.2 1.5 2.2 1.7 95.2 86.8 0.00 0.0000000 70.1
2020-09-16 02:50:00 60.5 54.6 44.1 60.5 60.5 0.0 1.7 0.8 123.8 87.1 0.00 0.0000000 70.0
2020-09-16 02:55:00 60.9 54.1 44.2 60.9 60.9 0.0 0.0 0.0 160.2 0.0 0.00 0.0000000 69.9
2020-09-16 03:00:00 61.0 54.1 44.3 61.0 61.0 0.0 0.0 0.0 261.2 0.0 0.00 0.0000000 69.8
2020-09-16 03:05:00 61.9 53.0 44.5 61.9 61.9 0.0 0.0 0.0 238.6 0.0 0.00 0.0000000 69.7
2020-09-16 03:10:00 62.1 52.8 44.7 62.1 62.1 0.0 0.0 0.0 233.7 0.0 0.00 0.0000000 69.6
2020-09-16 03:15:00 62.0 53.3 44.9 62.0 62.0 0.0 0.0 0.0 232.7 0.0 0.00 0.0000000 69.5
2020-09-16 03:20:00 61.9 53.7 44.9 61.9 61.9 0.0 0.0 0.0 302.6 0.0 0.00 0.0000000 69.4
2020-09-16 03:25:00 61.7 54.2 45.0 61.7 61.7 2.8 3.0 2.1 328.2 319.6 0.00 0.0000000 69.3
2020-09-16 03:30:00 61.4 54.2 44.7 61.4 61.4 1.3 2.8 2.2 349.8 329.7 0.00 0.0000000 69.2
2020-09-16 03:35:00 60.4 55.7 44.5 60.4 60.4 2.6 3.1 1.8 346.6 351.5 0.00 0.0000000 69.2
2020-09-16 03:40:00 60.8 54.7 44.4 60.8 60.8 2.6 2.8 2.3 332.8 331.1 0.00 0.0000000 69.1
2020-09-16 03:45:00 61.1 53.8 44.2 61.1 61.1 3.7 4.2 3.6 330.4 332.8 0.00 0.0000000 69.0
2020-09-16 03:50:00 61.0 54.0 44.3 61.0 61.0 3.7 4.2 3.8 321.2 322.4 0.00 0.0000000 68.9
2020-09-16 03:55:00 61.0 54.2 44.4 61.0 61.0 3.7 4.2 3.8 311.7 316.4 0.00 0.0000000 68.8
2020-09-16 04:00:00 60.8 54.5 44.3 60.8 60.8 2.1 3.7 2.7 286.6 308.2 0.00 0.0000000 68.7
2020-09-16 04:05:00 60.5 55.1 44.3 60.5 60.5 1.7 3.3 2.3 294.7 276.7 0.00 0.0000000 68.6
2020-09-16 04:10:00 60.2 55.8 44.4 60.2 60.2 0.8 2.2 1.6 307.7 309.9 0.00 0.0000000 68.6
2020-09-16 04:15:00 60.3 55.5 44.3 60.3 60.3 1.9 2.2 1.4 302.6 299.6 0.00 0.0000000 68.5
2020-09-16 04:20:00 60.4 55.1 44.2 60.4 60.4 1.5 2.1 1.4 158.9 240.5 0.00 0.0000000 68.4
2020-09-16 04:25:00 59.2 57.4 44.1 59.2 59.2 2.1 2.1 0.7 332.1 323.7 0.00 0.0000000 68.3
2020-09-16 04:30:00 59.1 57.4 44.0 59.1 59.1 2.8 2.8 2.0 307.7 325.7 0.00 0.0000000 68.2
2020-09-16 04:35:00 59.7 56.4 44.2 59.7 59.7 3.3 3.3 3.0 324.8 319.7 0.00 0.0000000 68.1
2020-09-16 04:40:00 59.6 56.7 44.2 59.6 59.6 2.6 3.7 3.0 323.2 323.5 0.00 0.0000000 68.1
2020-09-16 04:45:00 59.6 56.8 44.2 59.6 59.6 1.3 2.6 2.0 323.1 328.7 0.00 0.0000000 68.0
2020-09-16 04:50:00 59.3 57.1 44.1 59.3 59.3 0.0 1.3 0.3 293.2 316.8 0.00 0.0000000 67.9
2020-09-16 04:55:00 59.0 57.9 44.2 59.0 59.0 2.1 2.1 0.2 308.1 305.0 0.00 0.0000000 67.8
2020-09-16 05:00:00 58.7 58.1 44.0 58.7 58.7 2.8 3.0 2.6 300.7 317.6 0.00 0.0000000 67.7
2020-09-16 05:05:00 59.0 57.5 44.0 59.0 59.0 2.1 3.0 2.3 302.3 303.0 0.00 0.0000000 67.6
2020-09-16 05:10:00 58.9 57.4 43.9 58.9 58.9 1.0 2.2 1.7 296.9 302.0 0.00 0.0000000 67.5
2020-09-16 05:15:00 59.0 57.2 43.8 59.0 59.0 1.7 1.7 1.3 306.8 295.9 0.00 0.0000000 67.5
2020-09-16 05:20:00 59.1 57.0 43.9 59.1 59.1 1.2 2.4 1.9 294.4 305.5 0.00 0.0000000 67.4
2020-09-16 05:25:00 58.8 58.0 44.0 58.8 58.8 1.7 1.7 0.4 141.3 169.1 0.00 0.0000000 67.3
2020-09-16 05:30:00 56.4 63.7 44.2 56.4 56.4 0.0 2.1 0.7 154.7 145.8 0.00 0.0000000 67.2
2020-09-16 05:35:00 56.8 62.9 44.2 56.8 56.8 2.4 2.4 0.8 311.2 309.3 0.00 0.0000000 67.1
2020-09-16 05:40:00 57.7 60.4 44.1 57.7 57.7 3.1 3.7 3.2 310.5 314.2 0.00 0.0000000 67.0
2020-09-16 05:45:00 57.7 60.2 44.0 57.7 57.7 3.7 3.8 3.2 317.6 311.5 0.00 0.0000000 67.0
2020-09-16 05:50:00 57.5 60.7 44.1 57.5 57.5 3.3 4.0 3.6 319.3 317.0 0.00 0.0000000 66.9
2020-09-16 05:55:00 57.1 61.6 44.0 57.1 57.1 5.8 5.8 4.2 333.7 327.3 0.00 0.0000000 66.8
2020-09-16 06:00:00 56.9 61.9 43.9 56.9 56.9 5.3 5.8 4.4 324.0 329.0 0.00 0.0000000 66.7
2020-09-16 06:05:00 56.4 62.7 43.9 56.4 56.4 4.9 6.0 5.1 314.5 321.2 0.00 0.0000000 66.6
2020-09-16 06:10:00 56.4 63.1 44.0 56.4 56.4 4.6 5.6 4.7 319.7 320.7 0.00 0.0000000 66.5
2020-09-16 06:15:00 56.1 63.7 44.0 56.1 56.1 4.6 5.1 4.6 324.3 324.0 0.00 0.0000000 66.5
2020-09-16 06:20:00 56.2 64.0 44.2 56.2 56.2 3.7 4.6 4.0 326.9 328.7 0.00 0.0000000 66.4
2020-09-16 06:25:00 56.2 63.9 44.2 56.2 56.2 3.8 3.8 3.3 318.3 337.2 0.00 0.0000000 66.3
2020-09-16 06:30:00 56.8 62.4 44.0 56.8 56.8 3.5 4.4 3.6 314.7 323.9 0.00 0.0000000 66.2
2020-09-16 06:35:00 56.9 62.2 44.1 56.9 56.9 4.4 4.4 3.7 315.2 315.5 0.00 0.0000000 66.1
2020-09-16 06:40:00 56.1 63.9 44.1 56.1 56.1 4.0 4.6 3.8 322.9 322.6 0.00 0.0000345 66.1
2020-09-16 06:45:00 55.9 64.7 44.2 55.9 55.9 4.2 4.6 4.2 322.3 323.3 0.00 0.0010606 66.0
2020-09-16 06:50:00 55.3 66.0 44.2 55.3 55.3 4.4 4.7 4.4 325.6 322.7 0.00 0.0034734 65.9
2020-09-16 06:55:00 55.3 66.3 44.2 55.3 55.3 3.3 4.6 3.8 312.4 325.4 0.00 0.0066157 65.9
2020-09-16 07:00:00 55.1 66.1 44.0 55.1 55.1 3.0 3.7 3.2 319.7 323.0 0.00 0.0096322 65.8
2020-09-16 07:05:00 54.9 65.8 43.7 54.9 54.9 3.8 4.2 3.5 339.4 325.5 0.00 0.0128611 65.7
2020-09-16 07:10:00 55.3 64.7 43.6 55.3 55.3 4.4 4.6 4.0 325.9 330.0 0.00 0.0166687 65.7
2020-09-16 07:15:00 55.8 63.5 43.6 55.8 55.8 1.9 4.4 3.5 319.5 332.2 0.00 0.0204422 65.6
2020-09-16 07:20:00 56.4 62.5 43.7 56.4 56.4 0.0 2.4 1.1 348.7 339.4 0.00 0.0241002 65.6
2020-09-16 07:25:00 56.2 66.5 45.2 56.2 56.2 2.4 2.4 1.1 236.9 253.4 0.00 0.0284070 65.6
2020-09-16 07:30:00 56.2 66.4 45.2 56.2 56.2 2.6 3.5 2.8 310.2 283.2 0.00 0.0334549 65.5
2020-09-16 07:35:00 56.5 66.8 45.6 56.5 56.5 4.0 4.0 3.1 328.1 313.7 0.00 0.0381561 65.5
2020-09-16 07:40:00 58.1 59.7 44.2 58.1 58.1 4.6 5.1 4.2 337.9 329.5 0.00 0.0429795 65.5
2020-09-16 07:45:00 58.6 59.2 44.4 58.6 58.6 4.2 5.8 4.9 324.0 322.3 0.00 0.0477767 65.5
2020-09-16 07:50:00 58.7 61.6 45.6 58.7 58.7 3.3 5.5 4.1 281.8 306.4 0.00 0.0523963 65.6
2020-09-16 07:55:00 58.7 62.9 46.1 58.7 58.7 3.1 4.6 3.4 300.7 287.9 0.00 0.0573964 65.7
2020-09-16 08:00:00 59.3 58.7 44.9 59.3 59.3 4.7 5.1 4.1 307.7 304.4 0.00 0.0624255 65.7
2020-09-16 08:05:00 59.8 57.2 44.6 59.8 59.8 6.0 7.1 5.7 314.5 314.6 0.00 0.0672098 65.8
2020-09-16 08:10:00 60.0 57.6 45.0 60.0 60.0 6.2 6.5 5.5 312.4 309.5 0.00 0.0721315 65.9
2020-09-16 08:15:00 60.5 56.9 45.1 60.5 60.5 4.2 6.5 5.3 319.9 310.7 0.00 0.0768764 66.0
2020-09-16 08:20:00 61.3 55.0 45.0 61.3 61.3 6.0 7.1 5.5 339.4 315.7 0.00 0.0821696 66.1
2020-09-16 08:25:00 61.9 53.1 44.6 61.9 61.9 5.3 6.9 5.3 331.2 324.3 0.00 0.0881447 66.3
2020-09-16 08:30:00 62.2 50.4 43.6 62.2 62.2 6.5 8.3 5.8 324.5 317.1 0.00 0.0939812 66.4
2020-09-16 08:35:00 62.5 49.6 43.4 62.5 62.5 4.7 6.9 5.6 327.9 305.0 0.00 0.0990475 66.6
2020-09-16 08:40:00 63.5 47.6 43.2 63.5 63.5 5.3 6.9 5.3 303.3 313.3 0.00 0.1036988 66.8
2020-09-16 08:45:00 64.0 45.6 42.6 64.0 64.0 5.5 7.8 6.2 309.3 306.0 0.00 0.1093613 66.9
2020-09-16 08:50:00 64.9 43.0 41.8 64.9 64.9 8.7 8.8 7.1 328.0 307.8 0.00 0.1156353 67.1
2020-09-16 08:55:00 65.3 42.0 41.6 65.3 65.3 6.3 9.2 6.9 294.6 306.8 0.00 0.1204713 67.3
2020-09-16 09:00:00 66.0 42.4 42.5 66.0 66.0 8.7 8.7 6.4 294.6 311.6 0.00 0.1253372 67.6
2020-09-16 09:05:00 66.0 42.3 42.4 66.0 66.0 7.2 9.2 7.4 298.4 313.5 0.00 0.1307417 67.8
2020-09-16 09:10:00 66.1 41.8 42.2 66.1 66.1 8.1 9.2 7.5 309.9 312.1 0.00 0.1364523 68.1
2020-09-16 09:15:00 66.8 40.7 42.1 66.8 66.8 5.6 8.3 6.8 309.1 306.1 0.00 0.1415461 68.3
2020-09-16 09:20:00 67.2 41.0 42.7 67.2 67.2 5.6 7.8 6.3 302.4 311.8 0.00 0.1477349 68.6
2020-09-16 09:25:00 67.6 40.3 42.6 67.6 67.6 6.5 8.3 6.3 298.7 304.6 0.00 0.1535546 68.8
2020-09-16 09:30:00 68.0 38.2 41.6 68.0 68.0 5.1 9.2 6.3 320.2 309.0 0.00 0.1576568 69.0
2020-09-16 09:35:00 68.7 36.0 40.6 68.7 68.7 7.6 9.4 6.8 307.1 307.9 0.00 0.1617140 69.1
2020-09-16 09:40:00 68.8 36.8 41.4 68.8 68.8 5.5 9.4 7.4 305.9 304.6 0.00 0.1647296 69.2
2020-09-16 09:45:00 70.0 33.5 40.0 70.0 70.0 4.7 8.5 6.5 310.1 303.1 0.00 0.1699665 69.3
2020-09-16 09:50:00 70.7 31.1 38.6 70.7 70.7 7.2 9.2 6.3 303.3 307.9 0.00 0.1754247 69.4
2020-09-16 09:55:00 71.7 30.0 38.6 71.7 71.7 5.5 8.1 6.1 341.3 337.4 0.00 0.1793088 69.4
2020-09-16 10:00:00 71.8 29.9 38.6 71.8 71.8 4.6 9.6 5.7 350.3 359.3 0.00 0.1833869 69.4
2020-09-16 10:05:00 72.6 28.7 38.3 72.6 72.6 6.2 9.6 6.2 25.6 10.6 0.00 0.1886516 69.5
2020-09-16 10:10:00 73.4 27.8 38.1 73.4 73.4 7.2 7.4 5.7 340.4 5.7 0.00 0.1933495 69.5
2020-09-16 10:15:00 73.6 27.1 37.7 73.6 73.6 4.7 8.7 6.4 34.6 355.3 0.00 0.1972972 69.5
2020-09-16 10:20:00 74.2 26.5 37.6 74.2 74.2 8.1 11.5 5.8 34.1 17.1 0.00 0.2017887 69.6
2020-09-16 10:25:00 74.3 25.5 36.8 74.3 74.3 5.8 10.5 7.0 0.6 358.6 0.00 0.2059068 69.7
2020-09-16 10:30:00 74.5 25.7 37.0 74.5 74.5 7.2 9.6 6.9 21.0 9.8 0.00 0.2095978 69.7
2020-09-16 10:35:00 75.2 25.0 36.9 75.2 75.2 7.1 9.9 6.8 36.9 23.4 0.00 0.2134068 69.8
2020-09-16 10:40:00 76.4 24.1 37.0 76.4 76.4 6.2 9.2 6.2 23.2 29.0 0.00 0.2183204 70.0
2020-09-16 10:45:00 76.8 23.9 37.3 76.8 76.8 6.2 9.9 6.4 19.8 39.0 0.00 0.2223479 70.3
2020-09-16 10:50:00 76.6 23.8 37.0 76.6 76.6 7.6 10.6 7.8 17.9 23.4 0.00 0.2246492 70.7
2020-09-16 10:55:00 76.5 24.0 37.0 76.5 76.5 7.4 10.1 6.9 0.9 22.4 0.00 0.2278834 71.1
2020-09-16 11:00:00 77.6 23.5 37.4 77.6 77.6 4.0 9.4 6.0 30.2 24.6 0.00 0.2313983 71.6
2020-09-16 11:05:00 78.0 23.4 37.6 78.0 78.0 4.6 8.7 5.0 36.3 15.3 0.00 0.2333172 72.0
2020-09-16 11:10:00 78.2 23.3 37.7 78.2 78.2 5.5 10.1 5.7 2.1 15.0 0.00 0.2358630 72.5
2020-09-16 11:15:00 78.3 22.2 36.5 78.3 78.3 6.5 10.8 7.6 38.3 45.5 0.00 0.2392302 73.0
2020-09-16 11:20:00 79.0 22.3 37.3 79.0 79.0 6.0 8.7 6.6 36.1 45.9 0.00 0.2418250 73.5
2020-09-16 11:25:00 79.3 22.2 37.5 79.3 79.3 8.1 11.0 7.9 36.5 39.0 0.00 0.2431212 74.1
2020-09-16 11:30:00 79.2 22.2 37.3 79.2 79.2 5.5 9.7 5.9 56.7 25.8 0.00 0.2445761 74.6
2020-09-16 11:35:00 79.1 21.6 36.6 79.1 79.1 4.9 10.5 7.3 72.3 53.4 0.00 0.2476044 75.1
2020-09-16 11:40:00 79.3 21.8 36.9 79.3 79.3 4.0 11.7 6.2 347.8 46.1 0.00 0.2497584 75.5
2020-09-16 11:45:00 81.5 21.1 38.0 81.5 81.5 8.1 8.8 6.7 68.0 53.9 0.00 0.2509144 76.0
2020-09-16 11:50:00 80.1 21.8 37.5 80.1 80.1 7.4 10.3 7.7 70.1 59.9 0.00 0.2524261 76.5
2020-09-16 11:55:00 81.4 21.0 37.7 81.4 81.4 7.2 11.9 6.5 27.4 66.3 0.00 0.2556815 76.9
2020-09-16 12:00:00 80.7 21.2 37.4 80.7 80.7 6.2 10.8 6.5 76.3 65.2 0.00 0.2591856 77.3
2020-09-16 12:05:00 80.9 21.4 37.7 80.9 80.9 6.9 10.1 6.7 47.6 58.5 0.00 0.2581185 77.8
2020-09-16 12:10:00 81.8 20.5 37.4 81.8 81.8 7.1 10.3 6.1 77.1 66.8 0.00 0.2591127 78.2
2020-09-16 12:15:00 81.6 21.4 38.4 81.6 81.6 4.7 10.1 6.8 61.4 65.6 0.00 0.2606120 78.7
2020-09-16 12:20:00 82.9 20.8 38.7 82.9 82.9 8.1 10.1 6.6 48.6 41.4 0.00 0.2612704 79.1
2020-09-16 12:25:00 83.0 20.4 38.3 83.0 83.0 8.0 11.5 6.2 58.4 74.8 0.00 0.2605152 79.5
2020-09-16 12:30:00 82.4 20.6 38.0 82.4 82.4 4.6 9.7 6.9 93.2 66.7 0.00 0.2611782 79.9
2020-09-16 12:35:00 82.9 20.0 37.7 82.9 82.9 9.0 10.1 7.1 133.2 87.1 0.00 0.2630500 80.3
2020-09-16 12:40:00 83.1 19.1 36.7 83.1 83.1 7.2 9.0 6.8 102.5 113.2 0.00 0.2633471 80.7
2020-09-16 12:45:00 83.2 19.7 37.5 83.2 83.2 7.4 10.5 7.8 73.6 58.5 0.00 0.2640148 81.1
2020-09-16 12:50:00 83.7 19.8 38.2 83.7 83.7 4.0 8.7 6.1 153.4 70.3 0.00 0.2643188 81.5
2020-09-16 12:55:00 84.0 19.8 38.4 84.0 84.0 7.6 11.7 6.3 126.2 117.3 0.00 0.2638586 81.8
2020-09-16 13:00:00 83.4 20.4 38.6 83.4 83.4 5.3 8.3 5.9 137.1 126.7 0.00 0.2619979 82.2
2020-09-16 13:05:00 84.5 19.4 38.2 84.5 84.5 6.7 9.7 7.0 76.1 100.5 0.00 0.2638493 82.5
2020-09-16 13:10:00 84.1 19.7 38.4 84.1 84.1 4.4 8.3 4.3 108.9 111.6 0.00 0.2628405 82.9
2020-09-16 13:15:00 84.6 19.6 38.6 84.6 84.6 5.3 8.8 4.8 103.8 108.3 0.00 0.2609791 83.2
2020-09-16 13:20:00 84.8 18.9 37.9 84.8 84.8 8.7 8.7 4.7 145.6 142.8 0.00 0.2604108 83.6
2020-09-16 13:25:00 85.0 19.0 38.1 85.0 85.0 6.9 9.2 7.1 84.2 72.5 0.00 0.2603824 83.9
2020-09-16 13:30:00 84.4 18.9 37.4 84.4 84.4 5.1 8.8 5.6 51.9 102.3 0.00 0.2591466 84.2
2020-09-16 13:35:00 84.4 18.4 36.8 84.4 84.4 4.9 10.1 6.5 152.2 135.7 0.00 0.2585018 84.5
2020-09-16 13:40:00 84.7 18.0 36.5 84.7 84.7 10.6 10.6 5.3 119.8 164.2 0.00 0.2561438 84.9
2020-09-16 13:45:00 85.4 17.3 36.0 85.4 85.4 5.3 12.1 7.6 80.6 72.3 0.00 0.2555681 85.2
2020-09-16 13:50:00 84.8 17.2 35.4 84.8 84.8 5.5 9.6 6.0 49.0 57.9 0.00 0.2545349 85.5
2020-09-16 13:55:00 84.9 17.3 35.7 84.9 84.9 3.7 6.3 4.5 124.3 92.8 0.00 0.2524051 85.7
2020-09-16 14:00:00 85.6 16.4 35.0 85.6 85.6 8.5 14.6 7.5 65.3 68.8 0.00 0.2506770 86.0
2020-09-16 14:05:00 84.9 16.6 34.7 84.9 84.9 5.6 12.6 8.9 342.2 14.5 0.00 0.2474290 86.3
2020-09-16 14:10:00 86.7 16.1 35.3 86.7 86.7 5.6 6.2 3.2 58.4 50.7 0.00 0.2453510 86.5
2020-09-16 14:15:00 86.8 15.8 34.9 86.8 86.8 5.6 7.1 4.8 1.4 16.2 0.00 0.2428663 86.7
2020-09-16 14:20:00 86.4 16.4 35.6 86.4 86.4 10.8 13.5 8.0 60.7 82.3 0.00 0.2403948 86.9
2020-09-16 14:25:00 85.9 16.3 35.0 85.9 85.9 8.7 13.5 11.0 50.1 51.4 0.00 0.2373597 87.2
2020-09-16 14:30:00 84.9 16.7 34.8 84.9 84.9 6.3 12.2 9.0 0.1 31.9 0.00 0.2348150 87.4
2020-09-16 14:35:00 86.0 16.0 34.6 86.0 86.0 6.7 10.1 6.1 23.6 34.6 0.00 0.2325543 87.6
2020-09-16 14:40:00 86.4 14.9 33.2 86.4 86.4 8.5 9.9 6.5 340.0 4.6 0.00 0.2299104 87.7
2020-09-16 14:45:00 86.4 14.8 32.9 86.4 86.4 7.8 11.7 8.2 327.4 6.8 0.00 0.2264205 87.9
2020-09-16 14:50:00 87.6 14.7 33.8 87.6 87.6 2.8 11.9 7.6 296.5 30.3 0.00 0.2222298 88.0
2020-09-16 14:55:00 86.9 14.6 33.0 86.9 86.9 12.1 13.0 7.9 49.2 16.4 0.00 0.2174208 88.2
2020-09-16 15:00:00 87.0 14.5 33.0 87.0 87.0 8.1 12.8 8.8 80.8 66.8 0.00 0.2152239 88.3
2020-09-16 15:05:00 87.3 14.5 33.2 87.3 87.3 12.1 16.5 10.8 48.5 64.8 0.00 0.2113615 88.5
2020-09-16 15:10:00 86.9 14.3 32.4 86.9 86.9 4.2 12.6 7.5 56.2 37.2 0.00 0.2082967 88.6
2020-09-16 15:15:00 87.0 15.0 33.7 87.0 87.0 9.2 11.3 6.6 36.5 26.8 0.00 0.2035196 88.7
2020-09-16 15:20:00 87.0 15.2 34.1 87.0 87.0 7.8 15.5 8.8 30.5 18.6 0.00 0.1996238 88.8
2020-09-16 15:25:00 86.2 15.2 33.4 86.2 86.2 12.2 15.3 11.3 58.1 27.2 0.00 0.1959869 88.8
2020-09-16 15:30:00 86.0 15.9 34.4 86.0 86.0 9.6 14.4 9.3 54.1 42.9 0.00 0.1925247 88.8
2020-09-16 15:35:00 86.5 15.3 33.8 86.5 86.5 10.6 13.5 10.4 72.8 47.3 0.00 0.1895844 88.9
2020-09-16 15:40:00 86.5 13.8 31.3 86.5 86.5 15.8 22.6 15.0 21.9 43.4 0.00 0.1847326 88.9
2020-09-16 15:45:00 85.9 14.2 31.5 85.9 85.9 13.0 17.2 13.5 49.2 39.0 0.00 0.1805215 88.9
2020-09-16 15:50:00 86.6 13.6 31.1 86.6 86.6 14.7 17.4 10.2 54.4 27.0 0.00 0.1761486 88.9
2020-09-16 15:55:00 86.7 13.3 30.5 86.7 86.7 11.7 17.1 10.6 15.1 22.4 0.00 0.1706144 88.9
2020-09-16 16:00:00 86.5 14.1 31.9 86.5 86.5 11.2 16.2 10.6 5.9 21.7 0.00 0.1662246 88.8
2020-09-16 16:05:00 85.6 13.8 30.6 85.6 85.6 15.8 20.1 12.2 17.1 31.7 0.00 0.1614535 88.8
2020-09-16 16:10:00 85.5 13.7 30.3 85.5 85.5 11.2 16.5 12.1 25.3 28.1 0.00 0.1565582 88.7
2020-09-16 16:15:00 85.7 13.7 30.5 85.7 85.7 13.1 15.6 12.2 45.9 40.9 0.00 0.1516156 88.6
2020-09-16 16:20:00 85.4 13.2 29.4 85.4 85.4 8.8 17.1 12.2 51.9 48.1 0.00 0.1467802 88.5
2020-09-16 16:25:00 85.2 14.4 31.4 85.2 85.2 13.7 16.7 13.0 55.7 42.2 0.00 0.1410509 88.4
2020-09-16 16:30:00 84.8 14.2 30.7 84.8 84.8 11.3 16.2 12.0 30.9 33.3 0.00 0.1363272 88.3
2020-09-16 16:35:00 84.9 13.7 29.8 84.9 84.9 15.1 18.1 12.4 29.6 40.5 0.00 0.1320820 88.1
2020-09-16 16:40:00 84.8 13.7 29.9 84.8 84.8 14.9 16.5 12.0 50.7 36.6 0.00 0.1263788 88.0
2020-09-16 16:45:00 84.4 15.1 31.9 84.4 84.4 11.2 15.5 12.0 61.0 38.8 0.00 0.1204356 87.8
2020-09-16 16:50:00 84.4 16.1 33.4 84.4 84.4 8.8 16.0 11.1 56.7 38.3 0.00 0.1155310 87.7
2020-09-16 16:55:00 84.4 16.0 33.3 84.4 84.4 12.8 17.2 11.3 57.8 43.7 0.00 0.1091217 87.5
2020-09-16 17:00:00 84.1 15.6 32.4 84.1 84.1 16.0 18.5 13.3 68.7 47.9 0.00 0.1046301 87.4
2020-09-16 17:05:00 83.6 15.8 32.3 83.6 83.6 13.0 17.4 13.4 51.2 50.1 0.00 0.1002929 87.3
2020-09-16 17:10:00 83.5 16.5 33.4 83.5 83.5 11.0 18.9 13.0 46.5 53.0 0.00 0.0954243 87.1
2020-09-16 17:15:00 83.5 16.6 33.4 83.5 83.5 13.5 16.2 12.8 46.4 51.1 0.00 0.0893276 87.0
2020-09-16 17:20:00 83.5 16.8 33.9 83.5 83.5 13.7 22.1 12.2 67.4 50.3 0.00 0.0834766 86.8
2020-09-16 17:25:00 83.0 17.2 33.9 83.0 83.0 14.2 15.8 13.7 54.7 59.6 0.00 0.0779953 86.6
2020-09-16 17:30:00 83.0 17.2 34.0 83.0 83.0 8.0 16.4 11.2 65.3 41.9 0.00 0.0732331 86.5
2020-09-16 17:35:00 82.9 17.1 33.7 82.9 82.9 15.5 17.4 12.5 54.3 55.7 0.00 0.0692030 86.3
2020-09-16 17:40:00 82.6 17.7 34.3 82.6 82.6 10.1 16.9 13.1 53.7 58.5 0.00 0.0637955 86.1
2020-09-16 17:45:00 82.4 18.5 35.3 82.4 82.4 13.7 17.1 13.6 61.8 56.1 0.00 0.0584230 86.0
2020-09-16 17:50:00 81.9 19.0 35.6 81.9 81.9 16.0 18.7 14.6 45.2 55.0 0.00 0.0531491 85.8
2020-09-16 17:55:00 81.9 18.6 35.1 81.9 81.9 8.7 16.0 12.1 46.8 48.5 0.00 0.0478914 85.6
2020-09-16 18:00:00 81.5 19.3 35.7 81.5 81.5 11.0 18.0 13.6 47.9 51.9 0.00 0.0422277 85.5
2020-09-16 18:05:00 81.4 18.6 34.7 81.4 81.4 15.6 16.5 11.7 47.9 51.7 0.00 0.0375233 85.3
2020-09-16 18:10:00 81.1 17.5 32.9 81.1 81.1 14.6 19.4 14.0 47.5 56.8 0.00 0.0332850 85.2
2020-09-16 18:15:00 80.8 16.9 31.8 80.8 80.8 9.9 20.1 14.7 44.1 55.1 0.00 0.0295066 85.0
2020-09-16 18:20:00 80.4 16.8 31.3 80.4 80.4 12.8 16.2 12.4 52.7 51.7 0.00 0.0250363 84.8
2020-09-16 18:25:00 80.3 18.3 33.3 80.3 80.3 15.3 16.4 11.8 41.6 51.3 0.00 0.0207295 84.6
2020-09-16 18:30:00 79.9 20.1 35.3 79.9 79.9 10.1 16.4 13.0 34.4 54.0 0.00 0.0165756 84.5
2020-09-16 18:35:00 79.4 18.5 33.0 79.4 79.4 13.5 17.4 13.8 62.1 61.4 0.00 0.0131007 84.3
2020-09-16 18:40:00 78.8 16.9 30.1 78.8 78.8 13.9 15.8 12.8 59.4 57.3 0.00 0.0097369 84.1
2020-09-16 18:45:00 78.6 16.6 29.5 78.6 78.6 12.1 18.5 13.5 58.1 51.8 0.00 0.0064371 83.9
2020-09-16 18:50:00 78.1 16.9 29.6 78.1 78.1 10.5 15.6 12.2 69.3 55.5 0.00 0.0034955 83.8
2020-09-16 18:55:00 77.5 17.7 30.3 77.5 77.5 9.7 13.7 11.0 63.8 54.0 0.00 0.0011865 83.6
2020-09-16 19:00:00 77.4 18.0 30.5 77.4 77.4 13.0 15.3 12.1 69.6 51.6 0.00 0.0000085 83.4
2020-09-16 19:05:00 76.8 18.4 30.6 76.8 76.8 8.3 14.6 11.1 53.7 51.3 0.00 0.0000000 83.2
2020-09-16 19:10:00 76.4 18.6 30.5 76.4 76.4 13.7 13.9 10.7 63.8 50.5 0.00 0.0000000 83.0
2020-09-16 19:15:00 76.3 18.8 30.8 76.3 76.3 14.0 14.0 11.2 35.7 52.0 0.00 0.0000000 82.8
2020-09-16 19:20:00 76.2 19.0 30.8 76.2 76.2 8.1 14.6 10.9 38.8 48.3 0.00 0.0000000 82.7
2020-09-16 19:25:00 75.8 19.1 30.7 75.8 75.8 9.4 13.1 10.0 48.5 48.7 0.00 0.0000000 82.5
2020-09-16 19:30:00 75.6 19.6 31.1 75.6 75.6 9.9 11.7 10.1 52.8 49.4 0.00 0.0000000 82.3
2020-09-16 19:35:00 75.3 20.1 31.5 75.3 75.3 6.3 13.3 9.6 47.1 47.2 0.00 0.0000000 82.1
2020-09-16 19:40:00 75.1 20.2 31.5 75.1 75.1 7.1 10.5 8.7 28.9 47.9 0.00 0.0000000 81.9
2020-09-16 19:45:00 74.7 20.7 31.8 74.7 74.7 6.7 9.9 7.9 48.1 45.0 0.00 0.0000000 81.7
2020-09-16 19:50:00 74.7 21.1 32.3 74.7 74.7 8.1 10.1 8.3 43.8 42.7 0.00 0.0000000 81.5
2020-09-16 19:55:00 74.4 21.6 32.6 74.4 74.4 7.8 11.3 9.0 62.6 48.9 0.00 0.0000000 81.3
2020-09-16 20:00:00 74.2 22.5 33.5 74.2 74.2 10.8 11.5 9.4 48.9 46.0 0.00 0.0000000 81.1
2020-09-16 20:05:00 74.0 23.1 34.0 74.0 74.0 8.3 12.2 9.2 52.5 50.5 0.00 0.0000000 81.0
2020-09-16 20:10:00 73.3 23.7 34.1 73.3 73.3 10.1 12.1 9.4 41.5 48.0 0.00 0.0000000 80.8
2020-09-16 20:15:00 72.7 24.7 34.5 72.7 72.7 8.0 11.0 9.0 66.4 52.1 0.00 0.0000000 80.6
2020-09-16 20:20:00 72.2 24.9 34.4 72.2 72.2 11.2 11.5 9.4 51.4 53.6 0.00 0.0000000 80.4
2020-09-16 20:25:00 71.8 25.3 34.4 71.8 71.8 9.4 10.8 8.7 49.3 51.8 0.00 0.0000000 80.2
2020-09-16 20:30:00 71.8 25.3 34.3 71.8 71.8 8.3 12.1 8.9 27.5 50.5 0.00 0.0000000 80.1
2020-09-16 20:35:00 72.2 25.0 34.4 72.2 72.2 9.6 13.1 10.5 66.3 47.9 0.00 0.0000000 79.9
2020-09-16 20:40:00 72.1 25.0 34.4 72.1 72.1 9.7 13.3 10.2 52.7 48.5 0.00 0.0000000 79.8
2020-09-16 20:45:00 72.2 25.2 34.6 72.2 72.2 8.5 12.1 9.4 53.5 43.9 0.00 0.0000000 79.6
2020-09-16 20:50:00 71.7 25.8 34.7 71.7 71.7 7.4 11.3 8.7 55.9 47.5 0.00 0.0000000 79.4
2020-09-16 20:55:00 71.3 26.4 35.0 71.3 71.3 9.7 10.5 8.0 53.3 44.8 0.00 0.0000000 79.2
2020-09-16 21:00:00 70.9 27.0 35.3 70.9 70.9 7.2 10.5 7.6 46.7 36.9 0.00 0.0000000 79.1
2020-09-16 21:05:00 70.8 27.6 35.7 70.8 70.8 8.7 10.1 8.0 49.2 40.2 0.00 0.0000000 78.9
2020-09-16 21:10:00 71.0 27.7 36.0 71.0 71.0 5.5 12.2 8.9 28.8 42.5 0.00 0.0000000 78.7
2020-09-16 21:15:00 70.6 28.9 36.7 70.6 70.6 8.3 9.7 7.8 36.2 39.3 0.00 0.0000000 78.6
2020-09-16 21:20:00 70.7 29.6 37.3 70.7 70.7 10.1 12.1 8.5 43.9 44.0 0.00 0.0000000 78.4
2020-09-16 21:25:00 70.8 30.2 38.0 70.8 70.8 8.7 10.8 8.8 43.9 44.6 0.00 0.0000000 78.3
2020-09-16 21:30:00 70.6 30.5 38.0 70.6 70.6 11.9 11.9 9.5 54.5 44.0 0.00 0.0000000 78.2
2020-09-16 21:35:00 69.9 31.3 38.1 69.9 69.9 6.7 12.6 9.0 57.8 47.3 0.00 0.0000000 78.0
2020-09-16 21:40:00 69.6 31.8 38.3 69.6 69.6 9.4 10.5 8.5 58.9 48.1 0.00 0.0000000 77.9
2020-09-16 21:45:00 69.1 32.6 38.4 69.1 69.1 7.2 9.9 8.1 37.3 47.8 0.00 0.0000000 77.7
2020-09-16 21:50:00 68.8 33.2 38.7 68.8 68.8 9.2 10.3 7.7 46.6 45.3 0.00 0.0000000 77.6
2020-09-16 21:55:00 68.7 33.8 39.0 68.7 68.7 8.0 10.8 8.2 55.3 46.1 0.00 0.0000000 77.5
2020-09-16 22:00:00 68.7 34.3 39.4 68.7 68.7 9.0 9.0 7.9 41.2 41.2 0.00 0.0000000 77.3
2020-09-16 22:05:00 68.7 34.5 39.5 68.7 68.7 8.1 9.7 7.6 33.0 43.9 0.00 0.0000000 77.2
2020-09-16 22:10:00 68.5 34.9 39.7 68.5 68.5 9.7 11.0 8.6 43.7 48.3 0.00 0.0000000 77.0
2020-09-16 22:15:00 68.3 35.4 39.9 68.3 68.3 8.1 10.5 8.2 29.3 41.8 0.00 0.0000000 76.9
2020-09-16 22:20:00 68.0 35.8 39.9 68.0 68.0 7.1 9.0 6.9 16.8 39.3 0.00 0.0000000 76.8
2020-09-16 22:25:00 67.7 36.7 40.2 67.7 67.7 5.6 8.5 6.5 40.7 38.8 0.00 0.0000000 76.7
2020-09-16 22:30:00 67.6 37.1 40.5 67.6 67.6 10.1 10.3 7.6 47.5 44.4 0.00 0.0000000 76.5
2020-09-16 22:35:00 67.7 37.1 40.6 67.7 67.7 7.2 9.9 8.1 57.3 44.4 0.00 0.0000000 76.4
2020-09-16 22:40:00 67.5 37.4 40.6 67.5 67.5 8.7 10.1 7.9 46.4 44.9 0.00 0.0000000 76.3
2020-09-16 22:45:00 67.2 38.0 40.7 67.2 67.2 7.4 9.4 7.7 29.1 43.5 0.00 0.0000000 76.1
2020-09-16 22:50:00 66.9 38.5 40.8 66.9 66.9 8.3 9.4 7.8 54.5 46.9 0.00 0.0000000 76.0
2020-09-16 22:55:00 66.6 38.8 40.8 66.6 66.6 7.8 9.0 7.1 13.7 43.3 0.00 0.0000000 75.9
2020-09-16 23:00:00 66.6 39.0 40.9 66.6 66.6 6.7 9.7 7.6 39.5 45.9 0.00 0.0000000 75.8
2020-09-16 23:05:00 66.6 39.1 41.0 66.6 66.6 7.4 9.2 7.3 37.4 46.2 0.00 0.0000000 75.7
2020-09-16 23:10:00 66.9 39.2 41.2 66.9 66.9 7.2 9.7 7.4 33.2 42.7 0.00 0.0000000 75.5
2020-09-16 23:15:00 66.8 39.2 41.2 66.8 66.8 8.5 8.7 7.0 32.6 42.4 0.00 0.0000000 75.4
2020-09-16 23:20:00 66.7 39.5 41.3 66.7 66.7 7.6 8.5 7.0 34.6 40.6 0.00 0.0000000 75.3
2020-09-16 23:25:00 66.3 39.9 41.2 66.3 66.3 6.2 8.5 6.5 44.7 40.3 0.00 0.0000000 75.2
2020-09-16 23:30:00 66.1 40.1 41.2 66.1 66.1 6.0 8.5 6.5 6.0 35.5 0.00 0.0000000 75.1
2020-09-16 23:35:00 66.4 40.1 41.4 66.4 66.4 8.7 8.7 7.2 20.0 39.9 0.00 0.0000000 75.0
2020-09-16 23:40:00 66.1 40.5 41.5 66.1 66.1 7.6 9.0 7.1 48.8 37.9 0.00 0.0000000 74.9
2020-09-16 23:45:00 66.3 40.7 41.6 66.3 66.3 6.7 9.7 7.4 32.5 44.0 0.00 0.0000000 74.8
2020-09-16 23:50:00 66.3 41.3 42.0 66.3 66.3 6.9 9.0 7.2 42.5 42.8 0.00 0.0000000 74.7
2020-09-16 23:55:00 65.9 41.8 42.0 65.9 65.9 9.7 11.2 7.6 48.4 43.5 0.00 0.0000000 74.5
2020-09-17 00:00:00 65.6 42.3 42.1 65.6 65.6 7.1 9.2 6.9 55.8 43.9 0.00 0.0000000 74.4

Data is courtesy of the NM Climate Center. DO NOT USE IN LEGAL PROCEEDINGS.